| time (UTC) | temp F | wind direction | speed MPH | gust MPH | rain 1hr in | rain 24hr in | rain mn in | humidity % | barometer mb |
| 20260503192316 | 68 | 132 | 8.0 | 20.0 | 0.00 | 0.00 | 0.00 | 46 | 1004.9 |
| 20260503191311 | 68 | 165 | 6.0 | 19.0 | 0.00 | 0.00 | 0.00 | 44 | 1005.0 |
| 20260503190322 | 67 | 178 | 5.0 | 22.0 | 0.00 | 0.00 | 0.00 | 48 | 1005.1 |
| 20260503185312 | 67 | 184 | 7.0 | 26.0 | 0.00 | 0.00 | 0.00 | 47 | 1005.3 |
| 20260503183321 | 66 | 208 | 7.0 | 23.0 | 0.00 | 0.00 | 0.00 | 51 | 1005.6 |
| 20260503182311 | 66 | 154 | 10.0 | 19.0 | 0.00 | 0.00 | 0.00 | 52 | 1006.0 |
| 20260503180319 | 64 | 172 | 9.0 | 16.0 | 0.00 | 0.00 | 0.00 | 56 | 1006.2 |
| 20260503173315 | 62 | 131 | 11.0 | 19.0 | 0.00 | 0.00 | 0.00 | 57 | 1006.9 |
| 20260503172311 | 61 | 210 | 6.0 | 20.0 | 0.00 | 0.00 | 0.00 | 58 | 1007.1 |
| 20260503171321 | 60 | 186 | 11.0 | 19.0 | 0.00 | 0.00 | 0.00 | 58 | 1007.3 |
| 20260503170312 | 59 | 161 | 9.0 | 14.0 | 0.00 | 0.00 | 0.00 | 57 | 1007.6 |
| 20260503150319 | 60 | 221 | 2.0 | 24.0 | 0.00 | 0.00 | 0.00 | 52 | 1008.4 |
| 20260503140314 | 57 | 246 | 5.0 | 15.0 | 0.00 | 0.00 | 0.00 | 58 | 1009.1 |
| 20260503131312 | 53 | 163 | 1.0 | 11.0 | 0.00 | 0.00 | 0.00 | 58 | 1009.6 |
| 20260503130327 | 53 | 244 | 1.0 | 12.0 | 0.00 | 0.00 | 0.00 | 57 | 1009.6 |
| 20260503110316 | 50 | 232 | 0.0 | 9.0 | 0.00 | 0.00 | 0.00 | 57 | 1009.5 |
| 20260503090310 | 48 | 225 | 1.0 | 10.0 | 0.00 | 0.00 | 0.00 | 58 | 1010.2 |
| 20260503081311 | 47 | 172 | 1.0 | 7.0 | 0.00 | 0.00 | 0.00 | 60 | 1010.7 |
| 20260503080326 | 47 | 176 | 0.0 | 4.0 | 0.00 | 0.00 | 0.00 | 60 | 1010.8 |
| 20260503072311 | 46 | 176 | 1.0 | 6.0 | 0.00 | 0.00 | 0.00 | 62 | 1010.9 |
| 20260503071322 | 45 | 176 | 1.0 | 7.0 | 0.00 | 0.00 | 0.00 | 63 | 1011.1 |
| 20260503070311 | 45 | 179 | 1.0 | 4.0 | 0.00 | 0.00 | 0.00 | 64 | 1011.2 |
| 20260503060311 | 44 | 179 | 0.0 | 2.0 | 0.00 | 0.00 | 0.00 | 65 | 1011.6 |
| 20260503053329 | 42 | 179 | 0.0 | 2.0 | 0.00 | 0.00 | 0.00 | 67 | 1011.9 |
| 20260503052320 | 41 | 179 | 0.0 | 1.0 | 0.00 | 0.00 | 0.00 | 67 | 1011.9 |
| 20260503051311 | 41 | 179 | 0.0 | 1.0 | 0.00 | 0.00 | 0.00 | 66 | 1012.0 |
| 20260503050321 | 41 | 179 | 0.0 | 0.0 | 0.00 | 0.00 | 0.00 | 67 | 1012.1 |
| 20260503045316 | 41 | 179 | 0.0 | 0.0 | 0.00 | 0.00 | 0.00 | 67 | 1012.1 |
| 20260503044310 | 42 | 179 | 0.0 | 0.0 | 0.00 | 0.00 | 0.00 | 67 | 1012.2 |
| 20260503043321 | 42 | 179 | 0.0 | 0.0 | 0.00 | 0.00 | 0.00 | 67 | 1012.2 |
| 20260503041330 | 43 | 179 | 0.0 | 1.0 | 0.00 | 0.00 | 0.00 | 67 | 1012.4 |
| 20260503040321 | 43 | 179 | 0.0 | 1.0 | 0.00 | 0.00 | 0.00 | 67 | 1012.4 |
| 20260503034311 | 43 | 179 | 1.0 | 4.0 | 0.00 | 0.00 | 0.00 | 67 | 1012.6 |
| 20260503033323 | 43 | 179 | 0.0 | 1.0 | 0.00 | 0.00 | 0.00 | 67 | 1012.6 |
| 20260503032314 | 43 | 179 | 0.0 | 2.0 | 0.00 | 0.00 | 0.00 | 67 | 1012.7 |
| 20260503031326 | 43 | 179 | 0.0 | 2.0 | 0.00 | 0.00 | 0.00 | 67 | 1012.9 |
| 20260503030320 | 44 | 179 | 0.0 | 5.0 | 0.00 | 0.00 | 0.00 | 66 | 1012.9 |
| 20260503025310 | 44 | 179 | 1.0 | 4.0 | 0.00 | 0.00 | 0.00 | 66 | 1013.1 |
| 20260503022312 | 45 | 179 | 1.0 | 4.0 | 0.00 | 0.00 | 0.00 | 65 | 1013.1 |
| 20260503021322 | 45 | 179 | 0.0 | 4.0 | 0.00 | 0.00 | 0.00 | 65 | 1013.2 |
| 20260503020314 | 45 | 179 | 1.0 | 4.0 | 0.00 | 0.00 | 0.00 | 64 | 1013.1 |
| 20260503015325 | 46 | 179 | 0.0 | 4.0 | 0.00 | 0.00 | 0.00 | 63 | 1013.1 |
| 20260503014319 | 46 | 179 | 0.0 | 6.0 | 0.00 | 0.00 | 0.00 | 63 | 1013.0 |
| 20260503013309 | 47 | 179 | 1.0 | 6.0 | 0.00 | 0.00 | 0.00 | 62 | 1012.9 |
| 20260503011318 | 47 | 180 | 1.0 | 5.0 | 0.00 | 0.00 | 0.00 | 60 | 1013.0 |
| 20260503010309 | 48 | 181 | 2.0 | 5.0 | 0.00 | 0.00 | 0.00 | 60 | 1013.0 |
| 20260503005323 | 48 | 182 | 2.0 | 6.0 | 0.00 | 0.00 | 0.00 | 60 | 1013.0 |
| 20260503003311 | 49 | 186 | 0.0 | 5.0 | 0.00 | 0.00 | 0.00 | 60 | 1013.1 |
| 20260503001314 | 50 | 188 | 1.0 | 3.0 | 0.00 | 0.00 | 0.00 | 60 | 1013.2 |
| 20260503000326 | 50 | 188 | 1.0 | 6.0 | 0.00 | 0.00 | 0.00 | 60 | 1013.2 |
| 20260502235319 | 51 | 189 | 2.0 | 5.0 | 0.00 | 0.00 | 0.00 | 59 | 1013.3 |
| 20260502234313 | 51 | 189 | 2.0 | 5.0 | 0.00 | 0.00 | 0.00 | 59 | 1013.3 |
| 20260502233326 | 52 | 190 | 2.0 | 8.0 | 0.00 | 0.00 | 0.00 | 58 | 1013.4 |
| 20260502231314 | 52 | 156 | 3.0 | 6.0 | 0.00 | 0.00 | 0.00 | 57 | 1013.6 |
| 20260502230325 | 52 | 157 | 1.0 | 7.0 | 0.00 | 0.00 | 0.00 | 57 | 1013.7 |
| 20260502224329 | 53 | 181 | 1.0 | 6.0 | 0.00 | 0.00 | 0.00 | 55 | 1013.9 |
| 20260502223323 | 52 | 167 | 4.0 | 10.0 | 0.00 | 0.00 | 0.00 | 55 | 1014.1 |
| 20260502222314 | 52 | 257 | 1.0 | 11.0 | 0.00 | 0.00 | 0.00 | 53 | 1014.1 |
| 20260502215315 | 51 | 157 | 6.0 | 9.0 | 0.00 | 0.00 | 0.00 | 54 | 1014.4 |
| 20260502214326 | 52 | 202 | 4.0 | 8.0 | 0.00 | 0.00 | 0.00 | 52 | 1014.4 |
| 20260502213319 | 51 | 161 | 4.0 | 11.0 | 0.00 | 0.00 | 0.00 | 54 | 1014.6 |
| 20260502212316 | 53 | 146 | 1.0 | 12.0 | 0.00 | 0.00 | 0.00 | 50 | 1014.8 |
| 20260502210320 | 53 | 154 | 5.0 | 11.0 | 0.00 | 0.00 | 0.00 | 50 | 1014.8 |
| 20260502205313 | 55 | 175 | 4.0 | 9.0 | 0.00 | 0.00 | 0.00 | 48 | 1014.8 |
| 20260502204328 | 54 | 259 | 3.0 | 9.0 | 0.00 | 0.00 | 0.00 | 50 | 1014.9 |
| 20260502203318 | 54 | 150 | 5.0 | 13.0 | 0.00 | 0.00 | 0.00 | 51 | 1015.1 |
| 20260502202329 | 53 | 123 | 2.0 | 14.0 | 0.00 | 0.00 | 0.00 | 51 | 1015.3 |
| 20260502201319 | 53 | 140 | 1.0 | 9.0 | 0.00 | 0.00 | 0.00 | 50 | 1015.4 |
| 20260502195325 | 54 | 165 | 4.0 | 9.0 | 0.00 | 0.00 | 0.00 | 49 | 1015.9 |
| 20260502194319 | 54 | 178 | 2.0 | 12.0 | 0.00 | 0.00 | 0.00 | 51 | 1016.0 |
| 20260502193311 | 53 | 151 | 2.0 | 5.0 | 0.00 | 0.00 | 0.00 | 47 | 1016.0 |